createdAt,value
2023-04-20T00:00:22.769Z,94488.00
2023-04-20T00:01:22.757Z,94486.00
2023-04-20T00:02:22.875Z,94486.00
2023-04-20T00:03:23.408Z,94482.00
2023-04-20T00:04:22.706Z,94478.00
2023-04-20T00:05:22.778Z,94478.00
2023-04-20T00:06:22.691Z,94476.00
2023-04-20T00:07:22.764Z,94478.00
2023-04-20T00:08:22.718Z,94476.00
2023-04-20T00:09:22.696Z,94474.00
2023-04-20T00:10:22.677Z,94474.00
2023-04-20T00:11:22.680Z,94470.00
2023-04-20T00:12:22.745Z,94472.00
2023-04-20T00:13:22.772Z,94470.00
2023-04-20T00:14:22.778Z,94470.00
2023-04-20T00:15:22.796Z,94468.00
2023-04-20T00:16:22.937Z,94464.00
2023-04-20T00:17:22.937Z,94464.00
2023-04-20T00:18:22.973Z,94462.00
2023-04-20T00:19:22.870Z,94464.00
2023-04-20T00:20:22.937Z,94460.00
2023-04-20T00:21:22.906Z,94458.00
2023-04-20T00:22:22.995Z,94456.00
2023-04-20T00:23:23.005Z,94454.00
2023-04-20T00:24:23.026Z,94454.00
2023-04-20T00:25:23.038Z,94454.00
2023-04-20T00:26:23.055Z,94456.00
2023-04-20T00:27:23.140Z,94454.00
2023-04-20T00:28:23.208Z,94452.00
2023-04-20T00:29:23.258Z,94454.00
2023-04-20T00:30:23.342Z,94448.00
2023-04-20T00:31:23.434Z,94450.00
2023-04-20T00:32:23.439Z,94448.00
2023-04-20T00:33:23.437Z,94450.00
2023-04-20T00:34:23.403Z,94450.00
2023-04-20T00:35:23.428Z,94450.00
2023-04-20T00:36:23.448Z,94442.00
2023-04-20T00:37:23.406Z,94442.00
2023-04-20T00:38:25.318Z,94444.00
2023-04-20T00:39:23.504Z,94442.00
2023-04-20T00:40:23.581Z,94441.00
2023-04-20T00:41:23.586Z,94441.00
2023-04-20T00:42:23.659Z,94442.00
2023-04-20T00:43:23.676Z,94441.00
2023-04-20T00:44:23.698Z,94441.00
2023-04-20T00:45:23.720Z,94442.00
2023-04-20T00:46:23.825Z,94439.00
2023-04-20T00:47:23.774Z,94442.00
2023-04-20T00:48:23.821Z,94441.00
2023-04-20T00:49:23.785Z,94435.00
2023-04-20T00:50:23.860Z,94435.00
2023-04-20T00:51:23.939Z,94433.00
2023-04-20T00:52:23.946Z,94431.00
2023-04-20T00:53:24.014Z,94431.00
2023-04-20T00:54:23.982Z,94431.00
2023-04-20T00:55:23.992Z,94431.00
2023-04-20T00:56:24.015Z,94429.00
2023-04-20T00:57:24.163Z,94427.00
2023-04-20T00:58:24.049Z,94423.00
2023-04-20T00:59:24.021Z,94425.00
2023-04-20T01:00:24.059Z,94421.00
2023-04-20T01:01:24.238Z,94423.00
2023-04-20T01:02:24.337Z,94423.00
2023-04-20T01:03:24.474Z,94423.00
2023-04-20T01:04:24.356Z,94419.00
2023-04-20T01:05:24.327Z,94421.00
2023-04-20T01:06:24.365Z,94423.00
2023-04-20T01:07:24.428Z,94417.00
2023-04-20T01:08:24.403Z,94417.00
2023-04-20T01:09:24.409Z,94419.00
2023-04-20T01:10:24.470Z,94415.00
2023-04-20T01:11:24.569Z,94413.00
2023-04-20T01:12:24.567Z,94417.00
2023-04-20T01:13:24.633Z,94415.00
2023-04-20T01:14:24.655Z,94411.00
2023-04-20T01:15:24.639Z,94411.00
2023-04-20T01:16:24.658Z,94411.00
2023-04-20T01:17:24.754Z,94409.00
2023-04-20T01:18:24.834Z,94409.00
2023-04-20T01:19:24.703Z,94407.00
2023-04-20T01:20:24.774Z,94407.00
2023-04-20T01:21:24.800Z,94407.00
2023-04-20T01:22:24.925Z,94405.00
2023-04-20T01:23:25.343Z,94405.00
2023-04-20T01:24:24.946Z,94405.00
2023-04-20T01:25:25.072Z,94405.00
2023-04-20T01:26:25.104Z,94409.00
2023-04-20T01:27:25.108Z,94409.00
2023-04-20T01:28:25.327Z,94407.00
2023-04-20T01:29:25.208Z,94405.00
2023-04-20T01:30:25.319Z,94405.00
2023-04-20T01:31:25.373Z,94399.00
2023-04-20T01:32:25.347Z,94399.00
2023-04-20T01:33:25.387Z,94399.00
2023-04-20T01:34:25.390Z,94397.00
2023-04-20T01:35:25.412Z,94397.00
2023-04-20T01:36:25.480Z,94401.00
2023-04-20T01:37:25.451Z,94399.00
2023-04-20T01:38:25.511Z,94399.00
2023-04-20T01:39:25.524Z,94399.00
2023-04-20T01:40:25.572Z,94401.00
2023-04-20T01:41:25.637Z,94399.00
2023-04-20T01:42:25.695Z,94403.00
2023-04-20T01:43:25.710Z,94403.00
2023-04-20T01:44:25.749Z,94399.00
2023-04-20T01:45:25.747Z,94397.00
2023-04-20T01:46:25.805Z,94397.00
2023-04-20T01:47:27.401Z,94395.00
2023-04-20T01:48:25.858Z,94397.00
2023-04-20T01:49:25.873Z,94394.00
2023-04-20T01:50:25.899Z,94392.00
2023-04-20T01:51:25.908Z,94390.00
2023-04-20T01:52:25.898Z,94390.00
2023-04-20T01:53:25.962Z,94388.00
2023-04-20T01:54:25.924Z,94384.00
2023-04-20T01:55:25.994Z,94384.00
2023-04-20T01:56:26.004Z,94382.00
2023-04-20T01:57:26.076Z,94380.00
2023-04-20T01:58:26.378Z,94370.00
2023-04-20T01:59:26.086Z,94370.00
2023-04-20T02:00:26.146Z,94368.00
2023-04-20T02:01:26.178Z,94366.00
2023-04-20T02:02:26.331Z,94364.00
2023-04-20T02:03:26.326Z,94362.00
2023-04-20T02:04:26.263Z,94364.00
2023-04-20T02:05:26.338Z,94364.00
2023-04-20T02:06:26.357Z,94362.00
2023-04-20T02:07:26.378Z,94360.00
2023-04-20T02:08:26.436Z,94360.00
2023-04-20T02:09:26.457Z,94358.00
2023-04-20T02:10:26.468Z,94360.00
2023-04-20T02:11:26.504Z,94358.00
2023-04-20T02:12:26.498Z,94354.00
2023-04-20T02:13:26.579Z,94356.00
2023-04-20T02:14:26.611Z,94354.00
2023-04-20T02:15:26.587Z,94354.00
2023-04-20T02:16:26.680Z,94358.00
2023-04-20T02:17:26.741Z,94358.00
2023-04-20T02:18:26.815Z,94360.00
2023-04-20T02:19:26.783Z,94360.00
2023-04-20T02:20:26.937Z,94360.00
2023-04-20T02:21:26.859Z,94360.00
2023-04-20T02:22:26.904Z,94356.00
2023-04-20T02:23:26.957Z,94360.00
2023-04-20T02:24:27.031Z,94356.00
2023-04-20T02:25:27.043Z,94354.00
2023-04-20T02:26:27.068Z,94352.00
2023-04-20T02:27:27.138Z,94354.00
2023-04-20T02:28:27.177Z,94354.00
2023-04-20T02:29:27.220Z,94356.00
2023-04-20T02:30:27.288Z,94356.00
2023-04-20T02:31:27.397Z,94354.00
2023-04-20T02:32:27.404Z,94352.00
2023-04-20T02:33:27.453Z,94352.00
2023-04-20T02:34:27.467Z,94354.00
2023-04-20T02:35:27.532Z,94352.00
2023-04-20T02:36:27.598Z,94352.00
2023-04-20T02:37:27.635Z,94350.00
2023-04-20T02:38:27.683Z,94350.00
2023-04-20T02:39:27.709Z,94349.00
2023-04-20T02:40:27.779Z,94349.00
2023-04-20T02:41:27.850Z,94350.00
2023-04-20T02:42:27.825Z,94349.00
2023-04-20T02:43:27.901Z,94347.00
2023-04-20T02:44:27.854Z,94347.00
2023-04-20T02:45:27.878Z,94345.00
2023-04-20T02:46:27.919Z,94345.00
2023-04-20T02:47:27.988Z,94343.00
2023-04-20T02:48:28.030Z,94343.00
2023-04-20T02:49:28.061Z,94343.00
2023-04-20T02:50:28.132Z,94341.00
2023-04-20T02:51:28.148Z,94339.00
2023-04-20T02:52:28.209Z,94339.00
2023-04-20T02:53:28.263Z,94337.00
2023-04-20T02:54:28.307Z,94331.00
2023-04-20T02:55:28.325Z,94333.00
2023-04-20T02:56:28.349Z,94331.00
2023-04-20T02:57:28.396Z,94329.00
2023-04-20T02:58:28.487Z,94329.00
2023-04-20T02:59:28.506Z,94327.00
2023-04-20T03:00:28.581Z,94325.00
2023-04-20T03:01:28.575Z,94325.00
2023-04-20T03:02:28.703Z,94323.00
2023-04-20T03:03:28.819Z,94319.00
2023-04-20T03:04:28.795Z,94315.00
2023-04-20T03:05:28.753Z,94315.00
2023-04-20T03:06:28.843Z,94319.00
2023-04-20T03:07:28.855Z,94315.00
2023-04-20T03:08:28.936Z,94313.00
2023-04-20T03:09:28.962Z,94315.00
2023-04-20T03:10:28.980Z,94315.00
2023-04-20T03:11:28.982Z,94311.00
2023-04-20T03:12:29.009Z,94311.00
2023-04-20T03:13:29.072Z,94313.00
2023-04-20T03:14:29.068Z,94311.00
2023-04-20T03:15:29.117Z,94311.00
2023-04-20T03:16:29.177Z,94311.00
2023-04-20T03:17:29.226Z,94317.00
2023-04-20T03:18:29.288Z,94319.00
2023-04-20T03:19:29.279Z,94319.00
2023-04-20T03:20:29.314Z,94315.00
2023-04-20T03:21:29.333Z,94317.00
2023-04-20T03:22:29.351Z,94313.00
2023-04-20T03:23:29.423Z,94311.00
2023-04-20T03:24:29.436Z,94311.00
2023-04-20T03:25:29.456Z,94311.00
2023-04-20T03:26:29.493Z,94307.00
2023-04-20T03:27:29.561Z,94309.00
2023-04-20T03:28:29.592Z,94307.00
2023-04-20T03:29:29.577Z,94307.00
2023-04-20T03:30:29.592Z,94309.00
2023-04-20T03:31:29.638Z,94305.00
2023-04-20T03:32:32.069Z,94305.00
2023-04-20T03:33:29.601Z,94302.00
2023-04-20T03:34:29.604Z,94303.00
2023-04-20T03:35:29.607Z,94303.00
2023-04-20T03:36:29.606Z,94300.00
2023-04-20T03:37:29.633Z,94300.00
2023-04-20T03:38:29.595Z,94298.00
2023-04-20T03:39:29.566Z,94292.00
2023-04-20T03:40:29.581Z,94290.00
2023-04-20T03:41:29.542Z,94294.00
2023-04-20T03:42:29.571Z,94292.00
2023-04-20T03:43:29.551Z,94292.00
2023-04-20T03:44:29.538Z,94292.00
2023-04-20T03:45:29.603Z,94292.00
2023-04-20T03:46:29.696Z,94290.00
2023-04-20T03:47:29.513Z,94290.00
2023-04-20T03:48:29.579Z,94286.00
2023-04-20T03:49:29.485Z,94286.00
2023-04-20T03:50:29.520Z,94286.00
2023-04-20T03:51:29.477Z,94284.00
2023-04-20T03:52:29.529Z,94284.00
2023-04-20T03:53:29.577Z,94280.00
2023-04-20T03:54:29.498Z,94284.00
2023-04-20T03:55:29.465Z,94282.00
2023-04-20T03:56:29.456Z,94286.00
2023-04-20T03:57:29.500Z,94288.00
2023-04-20T03:58:29.910Z,94284.00
2023-04-20T03:59:29.438Z,94286.00
2023-04-20T04:00:29.512Z,94280.00
2023-04-20T04:01:29.452Z,94282.00
2023-04-20T04:02:29.580Z,94282.00
2023-04-20T04:03:29.492Z,94284.00
2023-04-20T04:04:29.678Z,94282.00
2023-04-20T04:05:29.503Z,94284.00
2023-04-20T04:06:29.403Z,94284.00
2023-04-20T04:07:29.390Z,94284.00
2023-04-20T04:08:29.380Z,94284.00
2023-04-20T04:09:29.418Z,94284.00
2023-04-20T04:10:29.479Z,94280.00
2023-04-20T04:11:29.357Z,94278.00
2023-04-20T04:12:29.359Z,94282.00
2023-04-20T04:13:29.383Z,94280.00
2023-04-20T04:14:29.358Z,94280.00
2023-04-20T04:15:29.419Z,94278.00
2023-04-20T04:16:29.352Z,94278.00
2023-04-20T04:17:29.329Z,94278.00
2023-04-20T04:18:29.431Z,94276.00
2023-04-20T04:19:29.297Z,94274.00
2023-04-20T04:20:29.296Z,94276.00
2023-04-20T04:21:29.268Z,94274.00
2023-04-20T04:22:30.557Z,94272.00
2023-04-20T04:23:29.371Z,94272.00
2023-04-20T04:24:29.317Z,94270.00
2023-04-20T04:25:29.276Z,94270.00
2023-04-20T04:26:29.289Z,94270.00
2023-04-20T04:27:30.878Z,94270.00
2023-04-20T04:28:29.270Z,94272.00
2023-04-20T04:29:29.252Z,94272.00
2023-04-20T04:30:29.259Z,94270.00
2023-04-20T04:31:29.239Z,94268.00
2023-04-20T04:32:29.270Z,94272.00
2023-04-20T04:33:29.225Z,94266.00
2023-04-20T04:34:29.315Z,94268.00
2023-04-20T04:35:29.214Z,94268.00
2023-04-20T04:36:29.193Z,94264.00
2023-04-20T04:37:29.186Z,94266.00
2023-04-20T04:38:29.271Z,94268.00
2023-04-20T04:39:29.272Z,94264.00
2023-04-20T04:40:29.342Z,94266.00
2023-04-20T04:41:29.374Z,94262.00
2023-04-20T04:42:29.455Z,94264.00
2023-04-20T04:43:29.947Z,94266.00
2023-04-20T04:44:29.514Z,94266.00
2023-04-20T04:45:29.584Z,94264.00
2023-04-20T04:46:29.672Z,94264.00
2023-04-20T04:47:29.777Z,94266.00
2023-04-20T04:48:29.896Z,94266.00
2023-04-20T04:49:29.668Z,94264.00
2023-04-20T04:50:29.712Z,94264.00
2023-04-20T04:51:29.781Z,94268.00
2023-04-20T04:52:29.766Z,94268.00
2023-04-20T04:53:29.915Z,94264.00
2023-04-20T04:54:29.891Z,94264.00
2023-04-20T04:55:29.955Z,94266.00
2023-04-20T04:56:29.907Z,94268.00
2023-04-20T04:57:29.942Z,94268.00
2023-04-20T04:58:30.888Z,94264.00
2023-04-20T04:59:30.041Z,94268.00
2023-04-20T05:00:30.035Z,94264.00
2023-04-20T05:01:30.084Z,94264.00
2023-04-20T05:02:30.417Z,94262.00
2023-04-20T05:03:30.205Z,94266.00
2023-04-20T05:04:30.273Z,94268.00
2023-04-20T05:05:30.173Z,94266.00
2023-04-20T05:06:30.207Z,94270.00
2023-04-20T05:07:30.283Z,94266.00
2023-04-20T05:08:30.250Z,94264.00
2023-04-20T05:09:30.276Z,94266.00
2023-04-20T05:10:30.262Z,94266.00
2023-04-20T05:11:30.366Z,94266.00
2023-04-20T05:12:30.341Z,94266.00
2023-04-20T05:13:30.362Z,94266.00
2023-04-20T05:14:30.382Z,94264.00
2023-04-20T05:15:30.437Z,94266.00
2023-04-20T05:16:30.549Z,94268.00
2023-04-20T05:17:30.603Z,94270.00
2023-04-20T05:18:30.608Z,94270.00
2023-04-20T05:19:30.577Z,94268.00
2023-04-20T05:20:30.637Z,94268.00
2023-04-20T05:21:31.391Z,94266.00
2023-04-20T05:22:30.625Z,94260.00
2023-04-20T05:23:30.612Z,94260.00
2023-04-20T05:24:30.913Z,94258.00
2023-04-20T05:25:30.618Z,94260.00
2023-04-20T05:26:30.799Z,94258.00
2023-04-20T05:27:30.723Z,94262.00
2023-04-20T05:28:30.987Z,94260.00
2023-04-20T05:29:30.797Z,94262.00
2023-04-20T05:30:31.383Z,94266.00
2023-04-20T05:31:30.884Z,94266.00
2023-04-20T05:32:32.012Z,94266.00
2023-04-20T05:33:31.896Z,94268.00
2023-04-20T05:34:31.027Z,94266.00
2023-04-20T05:35:31.317Z,94264.00
2023-04-20T05:36:31.172Z,94268.00
2023-04-20T05:37:31.146Z,94266.00
2023-04-20T05:38:31.082Z,94266.00
2023-04-20T05:39:31.026Z,94266.00
2023-04-20T05:40:31.087Z,94260.00
2023-04-20T05:41:31.045Z,94262.00
2023-04-20T05:42:31.073Z,94262.00
2023-04-20T05:43:31.165Z,94264.00
2023-04-20T05:44:31.084Z,94262.00
2023-04-20T05:45:31.112Z,94264.00
2023-04-20T05:46:31.080Z,94270.00
2023-04-20T05:47:31.124Z,94268.00
2023-04-20T05:48:31.641Z,94268.00
2023-04-20T05:49:31.190Z,94266.00
2023-04-20T05:50:31.176Z,94268.00
2023-04-20T05:51:31.314Z,94266.00
2023-04-20T05:52:31.354Z,94266.00
2023-04-20T05:53:31.347Z,94262.00
2023-04-20T05:54:31.906Z,94266.00
2023-04-20T05:55:31.301Z,94264.00
2023-04-20T05:56:31.348Z,94266.00
2023-04-20T05:57:31.316Z,94264.00
2023-04-20T05:58:31.373Z,94264.00
2023-04-20T05:59:31.570Z,94266.00
2023-04-20T06:00:31.360Z,94262.00
2023-04-20T06:01:31.450Z,94266.00
2023-04-20T06:02:31.557Z,94262.00
2023-04-20T06:03:31.895Z,94258.00
2023-04-20T06:04:32.052Z,94262.00
2023-04-20T06:05:32.514Z,94258.00
2023-04-20T06:06:31.766Z,94260.00
2023-04-20T06:07:31.711Z,94260.00
2023-04-20T06:08:31.925Z,94256.00
2023-04-20T06:09:31.684Z,94258.00
2023-04-20T06:10:31.718Z,94258.00
2023-04-20T06:11:31.739Z,94256.00
2023-04-20T06:12:32.497Z,94260.00
2023-04-20T06:13:31.832Z,94258.00
2023-04-20T06:14:31.811Z,94258.00
2023-04-20T06:15:32.048Z,94262.00
2023-04-20T06:16:31.988Z,94258.00
2023-04-20T06:17:31.930Z,94256.00
2023-04-20T06:18:32.396Z,94256.00
2023-04-20T06:19:31.998Z,94256.00
2023-04-20T06:20:32.007Z,94258.00
2023-04-20T06:21:32.127Z,94254.00
2023-04-20T06:22:32.063Z,94254.00
2023-04-20T06:23:32.119Z,94256.00
2023-04-20T06:24:32.082Z,94258.00
2023-04-20T06:25:32.173Z,94254.00
2023-04-20T06:26:32.232Z,94254.00
2023-04-20T06:27:32.196Z,94254.00
2023-04-20T06:28:32.226Z,94254.00
2023-04-20T06:29:32.196Z,94256.00
2023-04-20T06:30:32.254Z,94258.00
2023-04-20T06:31:32.276Z,94256.00
2023-04-20T06:32:32.530Z,94252.00
2023-04-20T06:33:32.255Z,94254.00
2023-04-20T06:34:32.238Z,94256.00
2023-04-20T06:35:32.264Z,94258.00
2023-04-20T06:36:32.257Z,94254.00
2023-04-20T06:37:32.383Z,94256.00
2023-04-20T06:38:32.456Z,94260.00
2023-04-20T06:39:32.381Z,94258.00
2023-04-20T06:40:32.392Z,94260.00
2023-04-20T06:41:33.537Z,94260.00
2023-04-20T06:42:32.453Z,94264.00
2023-04-20T06:43:33.419Z,94262.00
2023-04-20T06:44:32.898Z,94260.00
2023-04-20T06:45:34.072Z,94258.00
2023-04-20T06:46:32.667Z,94254.00
2023-04-20T06:47:32.911Z,94256.00
2023-04-20T06:48:33.224Z,94256.00
2023-04-20T06:49:32.910Z,94256.00
2023-04-20T06:50:32.869Z,94254.00
2023-04-20T06:51:32.957Z,94256.00
2023-04-20T06:52:33.006Z,94256.00
2023-04-20T06:53:33.422Z,94256.00
2023-04-20T06:54:33.896Z,94256.00
2023-04-20T06:55:33.177Z,94260.00
2023-04-20T06:56:35.380Z,94258.00
2023-04-20T06:57:33.186Z,94256.00
2023-04-20T06:58:33.954Z,94254.00
2023-04-20T06:59:33.260Z,94258.00
2023-04-20T07:00:33.257Z,94252.00
2023-04-20T07:01:33.886Z,94252.00
2023-04-20T07:02:33.434Z,94252.00
2023-04-20T07:03:33.638Z,94252.00
2023-04-20T07:04:33.569Z,94252.00
2023-04-20T07:05:33.508Z,94248.00
2023-04-20T07:06:33.588Z,94248.00
2023-04-20T07:07:33.658Z,94248.00
2023-04-20T07:08:33.655Z,94245.00
2023-04-20T07:09:34.493Z,94245.00
2023-04-20T07:10:33.700Z,94248.00
2023-04-20T07:11:33.714Z,94247.00
2023-04-20T07:12:33.828Z,94245.00
2023-04-20T07:13:34.118Z,94248.00
2023-04-20T07:14:33.859Z,94248.00
2023-04-20T07:15:33.931Z,94243.00
2023-04-20T07:16:34.000Z,94245.00
2023-04-20T07:17:34.048Z,94241.00
2023-04-20T07:18:35.269Z,94243.00
2023-04-20T07:19:34.114Z,94239.00
2023-04-20T07:20:34.993Z,94239.00
2023-04-20T07:21:34.209Z,94243.00
2023-04-20T07:22:34.173Z,94247.00
2023-04-20T07:23:34.199Z,94243.00
2023-04-20T07:24:34.255Z,94243.00
2023-04-20T07:25:34.488Z,94243.00
2023-04-20T07:26:34.404Z,94241.00
2023-04-20T07:27:34.285Z,94239.00
2023-04-20T07:28:34.289Z,94239.00
2023-04-20T07:29:34.516Z,94241.00
2023-04-20T07:30:34.331Z,94241.00
2023-04-20T07:31:35.403Z,94239.00
2023-04-20T07:32:34.401Z,94241.00
2023-04-20T07:33:34.436Z,94243.00
2023-04-20T07:34:34.930Z,94241.00
2023-04-20T07:35:34.569Z,94241.00
2023-04-20T07:36:34.506Z,94243.00
2023-04-20T07:37:34.514Z,94243.00
2023-04-20T07:38:34.532Z,94245.00
2023-04-20T07:39:34.617Z,94245.00
2023-04-20T07:40:34.681Z,94248.00
2023-04-20T07:41:34.652Z,94245.00
2023-04-20T07:42:34.652Z,94245.00
2023-04-20T07:43:35.445Z,94247.00
2023-04-20T07:44:34.741Z,94247.00
2023-04-20T07:45:34.866Z,94247.00
2023-04-20T07:46:34.794Z,94247.00
2023-04-20T07:47:34.936Z,94245.00
2023-04-20T07:48:34.873Z,94245.00
2023-04-20T07:49:34.944Z,94245.00
2023-04-20T07:50:35.131Z,94245.00
2023-04-20T07:51:34.977Z,94241.00
2023-04-20T07:52:34.989Z,94243.00
2023-04-20T07:53:35.023Z,94239.00
2023-04-20T07:54:35.440Z,94237.00
2023-04-20T07:55:35.058Z,94237.00
2023-04-20T07:56:35.081Z,94237.00
2023-04-20T07:57:35.144Z,94241.00
2023-04-20T07:58:35.159Z,94239.00
2023-04-20T07:59:35.175Z,94239.00
2023-04-20T08:00:36.232Z,94235.00
2023-04-20T08:01:35.276Z,94235.00
2023-04-20T08:02:35.404Z,94235.00
2023-04-20T08:03:35.688Z,94237.00
2023-04-20T08:04:35.893Z,94235.00
2023-04-20T08:05:35.404Z,94231.00
2023-04-20T08:06:35.369Z,94233.00
2023-04-20T08:07:35.440Z,94231.00
2023-04-20T08:08:41.944Z,94231.00
2023-04-20T08:09:35.771Z,94233.00
2023-04-20T08:10:35.442Z,94227.00
2023-04-20T08:11:35.401Z,94225.00
2023-04-20T08:12:35.464Z,94225.00
2023-04-20T08:13:35.395Z,94225.00
2023-04-20T08:14:35.471Z,94227.00
2023-04-20T08:15:35.401Z,94223.00
2023-04-20T08:16:35.491Z,94225.00
2023-04-20T08:17:35.413Z,94225.00
2023-04-20T08:18:35.395Z,94225.00
2023-04-20T08:19:35.353Z,94217.00
2023-04-20T08:20:35.998Z,94219.00
2023-04-20T08:21:35.339Z,94217.00
2023-04-20T08:22:35.548Z,94215.00
2023-04-20T08:23:35.354Z,94213.00
2023-04-20T08:24:35.352Z,94213.00
2023-04-20T08:25:35.405Z,94213.00
2023-04-20T08:26:35.476Z,94213.00
2023-04-20T08:27:35.292Z,94215.00
2023-04-20T08:28:35.926Z,94215.00
2023-04-20T08:29:35.960Z,94217.00
2023-04-20T08:30:35.356Z,94217.00
2023-04-20T08:31:35.490Z,94217.00
2023-04-20T08:32:35.259Z,94213.00
2023-04-20T08:33:35.309Z,94217.00
2023-04-20T08:34:35.785Z,94213.00
2023-04-20T08:35:35.540Z,94213.00
2023-04-20T08:36:35.195Z,94207.00
2023-04-20T08:37:35.225Z,94207.00
2023-04-20T08:38:35.192Z,94209.00
2023-04-20T08:39:35.201Z,94209.00
2023-04-20T08:40:36.165Z,94205.00
2023-04-20T08:41:35.190Z,94209.00
2023-04-20T08:42:35.165Z,94205.00
2023-04-20T08:43:35.170Z,94205.00
2023-04-20T08:44:35.622Z,94203.00
2023-04-20T08:45:35.173Z,94201.00
2023-04-20T08:46:35.395Z,94203.00
2023-04-20T08:47:35.179Z,94201.00
2023-04-20T08:48:35.187Z,94201.00
2023-04-20T08:49:35.449Z,94200.00
2023-04-20T08:50:35.126Z,94201.00
2023-04-20T08:51:35.122Z,94200.00
2023-04-20T08:52:35.099Z,94200.00
2023-04-20T08:53:35.115Z,94200.00
2023-04-20T08:54:37.268Z,94201.00
2023-04-20T08:55:35.096Z,94200.00
2023-04-20T08:56:35.180Z,94200.00
2023-04-20T08:57:35.078Z,94200.00
2023-04-20T08:58:35.050Z,94198.00
2023-04-20T08:59:35.067Z,94198.00
2023-04-20T09:00:35.032Z,94194.00
2023-04-20T09:01:35.963Z,94194.00
2023-04-20T09:02:35.229Z,94194.00
2023-04-20T09:03:35.331Z,94194.00
2023-04-20T09:04:37.098Z,94190.00
2023-04-20T09:05:35.025Z,94190.00
2023-04-20T09:06:35.032Z,94194.00
2023-04-20T09:07:35.006Z,94192.00
2023-04-20T09:08:34.974Z,94192.00
2023-04-20T09:09:35.007Z,94194.00
2023-04-20T09:10:34.981Z,94194.00
2023-04-20T09:11:34.982Z,94190.00
2023-04-20T09:12:36.028Z,94192.00
2023-04-20T09:13:34.984Z,94192.00
2023-04-20T09:14:35.467Z,94196.00
2023-04-20T09:15:34.973Z,94196.00
2023-04-20T09:16:35.143Z,94190.00
2023-04-20T09:17:35.041Z,94192.00
2023-04-20T09:18:35.029Z,94192.00
2023-04-20T09:19:34.984Z,94196.00
2023-04-20T09:20:35.015Z,94200.00
2023-04-20T09:21:35.018Z,94200.00
2023-04-20T09:22:35.127Z,94196.00
2023-04-20T09:23:35.101Z,94196.00
2023-04-20T09:24:35.192Z,94192.00
2023-04-20T09:25:35.138Z,94192.00
2023-04-20T09:26:35.281Z,94188.00
2023-04-20T09:27:35.233Z,94186.00
2023-04-20T09:28:36.054Z,94188.00
2023-04-20T09:29:35.518Z,94186.00
2023-04-20T09:30:35.290Z,94184.00
2023-04-20T09:31:35.364Z,94184.00
2023-04-20T09:32:35.385Z,94188.00
2023-04-20T09:33:39.028Z,94186.00
2023-04-20T09:34:35.463Z,94184.00
2023-04-20T09:35:35.389Z,94184.00
2023-04-20T09:36:35.646Z,94190.00
2023-04-20T09:37:35.390Z,94190.00
2023-04-20T09:38:36.046Z,94190.00
2023-04-20T09:39:35.476Z,94186.00
2023-04-20T09:40:35.434Z,94188.00
2023-04-20T09:41:36.970Z,94184.00
2023-04-20T09:42:35.388Z,94178.00
2023-04-20T09:43:35.375Z,94176.00
2023-04-20T09:44:35.506Z,94176.00
2023-04-20T09:45:35.446Z,94176.00
2023-04-20T09:46:35.466Z,94176.00
2023-04-20T09:47:35.353Z,94172.00
2023-04-20T09:48:35.311Z,94170.00
2023-04-20T09:49:35.278Z,94168.00
2023-04-20T09:50:48.128Z,94174.00
2023-04-20T09:51:36.405Z,94172.00
2023-04-20T09:52:35.393Z,94172.00
2023-04-20T09:53:35.257Z,94170.00
2023-04-20T09:54:35.493Z,94170.00
2023-04-20T09:55:35.261Z,94170.00
2023-04-20T09:56:35.394Z,94170.00
2023-04-20T09:57:35.286Z,94172.00
2023-04-20T09:58:35.254Z,94172.00
2023-04-20T09:59:35.236Z,94172.00
2023-04-20T10:00:35.234Z,94170.00
2023-04-20T10:01:35.328Z,94170.00
2023-04-20T10:02:35.469Z,94166.00
2023-04-20T10:03:35.394Z,94164.00
2023-04-20T10:04:35.407Z,94166.00
2023-04-20T10:05:35.380Z,94162.00
2023-04-20T10:06:35.402Z,94156.00
2023-04-20T10:07:35.473Z,94162.00
2023-04-20T10:08:35.464Z,94158.00
2023-04-20T10:09:35.512Z,94156.00
2023-04-20T10:10:35.475Z,94156.00
2023-04-20T10:11:45.133Z,94154.00
2023-04-20T10:12:36.480Z,94158.00
2023-04-20T10:13:35.494Z,94158.00
2023-04-20T10:14:35.518Z,94158.00
2023-04-20T10:15:35.474Z,94160.00
2023-04-20T10:16:35.572Z,94156.00
2023-04-20T10:17:35.511Z,94156.00
2023-04-20T10:18:35.577Z,94156.00
2023-04-20T10:19:35.462Z,94158.00
2023-04-20T10:20:35.458Z,94153.00
2023-04-20T10:21:35.530Z,94151.00
2023-04-20T10:22:35.433Z,94145.00
2023-04-20T10:23:35.503Z,94143.00
2023-04-20T10:24:35.434Z,94143.00
2023-04-20T10:25:35.457Z,94143.00
2023-04-20T10:26:35.413Z,94143.00
2023-04-20T10:27:35.437Z,94141.00
2023-04-20T10:28:35.961Z,94135.00
2023-04-20T10:29:36.540Z,94137.00
2023-04-20T10:30:35.397Z,94137.00
2023-04-20T10:31:36.107Z,94137.00
2023-04-20T10:32:35.447Z,94133.00
2023-04-20T10:33:35.444Z,94137.00
2023-04-20T10:34:36.030Z,94133.00
2023-04-20T10:35:35.546Z,94133.00
2023-04-20T10:36:38.518Z,94139.00
2023-04-20T10:37:35.525Z,94131.00
2023-04-20T10:38:35.538Z,94129.00
2023-04-20T10:39:36.015Z,94127.00
2023-04-20T10:40:35.518Z,94129.00
2023-04-20T10:41:35.518Z,94123.00
2023-04-20T10:42:35.566Z,94115.00
2023-04-20T10:43:35.503Z,94109.00
2023-04-20T10:44:36.991Z,94107.00
2023-04-20T10:45:35.456Z,94105.00
2023-04-20T10:46:37.015Z,94107.00
2023-04-20T10:47:35.548Z,94103.00
2023-04-20T10:48:35.492Z,94103.00
2023-04-20T10:49:35.442Z,94100.00
2023-04-20T10:50:35.432Z,94100.00
2023-04-20T10:51:35.415Z,94096.00
2023-04-20T10:52:35.388Z,94092.00
2023-04-20T10:53:35.538Z,94090.00
2023-04-20T10:54:35.398Z,94086.00
2023-04-20T10:55:35.403Z,94084.00
2023-04-20T10:56:35.443Z,94084.00
2023-04-20T10:57:35.389Z,94086.00
2023-04-20T10:58:36.011Z,94084.00
2023-04-20T10:59:35.366Z,94082.00
2023-04-20T11:00:35.421Z,94080.00
2023-04-20T11:01:35.415Z,94076.00
2023-04-20T11:02:35.530Z,94076.00
2023-04-20T11:03:35.462Z,94072.00
2023-04-20T11:04:35.353Z,94074.00
2023-04-20T11:05:35.337Z,94070.00
2023-04-20T11:06:36.111Z,94066.00
2023-04-20T11:07:35.320Z,94066.00
2023-04-20T11:08:35.456Z,94064.00
2023-04-20T11:09:35.327Z,94068.00
2023-04-20T11:10:35.328Z,94064.00
2023-04-20T11:11:35.374Z,94064.00
2023-04-20T11:12:35.430Z,94068.00
2023-04-20T11:13:35.548Z,94070.00
2023-04-20T11:14:35.441Z,94068.00
2023-04-20T11:15:35.512Z,94072.00
2023-04-20T11:16:47.862Z,94072.00
2023-04-20T11:17:36.662Z,94068.00
2023-04-20T11:18:36.484Z,94068.00
2023-04-20T11:19:35.639Z,94066.00
2023-04-20T11:20:36.236Z,94070.00
2023-04-20T11:21:35.691Z,94070.00
2023-04-20T11:22:35.565Z,94072.00
2023-04-20T11:23:35.493Z,94072.00
2023-04-20T11:24:35.497Z,94072.00
2023-04-20T11:25:35.481Z,94074.00
2023-04-20T11:26:35.507Z,94074.00
2023-04-20T11:27:35.459Z,94074.00
2023-04-20T11:28:35.469Z,94074.00
2023-04-20T11:29:35.493Z,94074.00
2023-04-20T11:30:35.453Z,94068.00
2023-04-20T11:31:35.673Z,94072.00
2023-04-20T11:32:35.752Z,94070.00
2023-04-20T11:33:35.643Z,94074.00
2023-04-20T11:34:35.727Z,94070.00
2023-04-20T11:35:35.670Z,94068.00
2023-04-20T11:36:35.719Z,94068.00
2023-04-20T11:37:35.735Z,94064.00
2023-04-20T11:38:35.773Z,94064.00
2023-04-20T11:39:36.081Z,94062.00
2023-04-20T11:40:35.898Z,94064.00
2023-04-20T11:41:35.862Z,94066.00
2023-04-20T11:42:35.881Z,94068.00
2023-04-20T11:43:36.529Z,94062.00
2023-04-20T11:44:36.015Z,94068.00